Time;durP1;ratioP1;P1;durP2;ratioP2;P2;SDS_P1;SDS_P2;PMS_P1;PMS_P2;Temp;Humidity;BMP_temperature;BMP_pressure;BME280_temperature;BME280_humidity;BME280_pressure;Samples;Min_cycle;Max_cycle;Signal;HPM_P1;HPM_P2
2023/12/20 00:01:37;;;;;;;5.57;3.88;;;9.20;73.70;;;;;;5118247;27;20034;-76
2023/12/20 00:04:03;;;;;;;5.53;4.00;;;9.20;73.60;;;;;;5117490;27;20031;-76
2023/12/20 00:06:30;;;;;;;5.35;3.88;;;9.20;73.60;;;;;;5118578;27;20050;-77
2023/12/20 00:08:57;;;;;;;5.38;4.18;;;9.20;73.60;;;;;;5103183;28;20024;-76
2023/12/20 00:11:23;;;;;;;5.55;4.22;;;9.20;73.60;;;;;;5100302;28;20035;-77
2023/12/20 00:13:49;;;;;;;5.00;3.67;;;9.20;73.60;;;;;;5103933;27;20023;-76
2023/12/20 00:16:15;;;;;;;5.80;4.00;;;9.20;73.50;;;;;;5115335;27;20453;-77
2023/12/20 00:18:41;;;;;;;5.50;3.92;;;9.20;73.50;;;;;;5116252;27;20023;-77
2023/12/20 00:21:06;;;;;;;5.75;4.15;;;9.20;73.50;;;;;;5109670;28;20027;-76
2023/12/20 00:23:32;;;;;;;5.45;3.97;;;9.30;73.50;;;;;;5112366;27;20050;-76
2023/12/20 00:25:58;;;;;;;6.65;3.85;;;9.30;73.40;;;;;;5134742;27;20122;-77
2023/12/20 00:28:24;;;;;;;4.93;4.00;;;9.20;73.40;;;;;;5110671;27;20106;-76
2023/12/20 00:30:50;;;;;;;4.65;3.53;;;9.30;73.40;;;;;;5115552;28;20034;-78
2023/12/20 00:33:15;;;;;;;5.30;4.05;;;9.20;73.30;;;;;;5097432;28;20024;-77
2023/12/20 00:35:41;;;;;;;4.95;3.92;;;9.30;73.30;;;;;;5103433;27;20023;-77
2023/12/20 00:38:08;;;;;;;5.60;4.10;;;9.20;73.30;;;;;;5111941;27;20544;-77
2023/12/20 00:40:34;;;;;;;6.78;4.03;;;9.20;73.30;;;;;;5115725;27;20023;-77
2023/12/20 00:43:00;;;;;;;5.75;4.10;;;9.20;73.20;;;;;;5098436;27;20031;-77
2023/12/20 00:45:26;;;;;;;5.25;3.97;;;9.20;73.30;;;;;;5102796;27;20054;-76
2023/12/20 00:47:52;;;;;;;4.80;3.78;;;9.20;73.30;;;;;;5112223;28;20442;-78
2023/12/20 00:50:18;;;;;;;6.05;3.97;;;9.20;73.20;;;;;;5097411;28;20118;-77
2023/12/20 00:52:43;;;;;;;5.82;4.22;;;9.20;73.20;;;;;;5112057;27;20083;-76
2023/12/20 00:55:09;;;;;;;5.60;3.75;;;9.20;73.20;;;;;;5104287;28;20072;-76
2023/12/20 00:57:35;;;;;;;5.68;4.03;;;9.20;73.20;;;;;;5106574;28;20055;-77
2023/12/20 01:00:01;;;;;;;6.10;3.97;;;9.20;73.10;;;;;;5103956;27;20031;-77
2023/12/20 01:02:27;;;;;;;5.53;3.88;;;9.20;73.10;;;;;;5134634;27;20031;-77
2023/12/20 01:04:52;;;;;;;5.50;4.13;;;9.10;73.10;;;;;;5103152;27;20072;-77
2023/12/20 01:07:18;;;;;;;4.82;3.50;;;9.10;73.10;;;;;;5130785;27;20023;-77
2023/12/20 01:09:44;;;;;;;6.10;3.97;;;9.10;73.00;;;;;;5106989;27;20039;-77
2023/12/20 01:12:10;;;;;;;4.45;3.28;;;9.10;73.00;;;;;;5114783;27;20019;-76
2023/12/20 01:14:36;;;;;;;4.57;3.45;;;9.10;73.00;;;;;;5107261;28;20139;-77
2023/12/20 01:17:02;;;;;;;5.05;3.70;;;9.10;73.00;;;;;;5130553;27;20059;-76
2023/12/20 01:19:29;;;;;;;6.60;3.80;;;9.10;73.00;;;;;;5133293;27;20035;-78
2023/12/20 01:21:55;;;;;;;4.88;3.70;;;9.10;73.00;;;;;;5110085;27;20023;-76
2023/12/20 01:24:21;;;;;;;5.07;3.85;;;9.10;72.90;;;;;;5128835;27;20024;-76
2023/12/20 01:26:47;;;;;;;4.80;3.50;;;9.10;72.90;;;;;;5112864;27;20080;-76
2023/12/20 01:29:14;;;;;;;4.72;3.60;;;9.10;72.80;;;;;;5112200;27;20392;-77
2023/12/20 01:31:40;;;;;;;5.13;3.72;;;9.10;72.80;;;;;;5107912;27;20068;-76
2023/12/20 01:34:06;;;;;;;5.53;4.38;;;9.10;72.80;;;;;;5116698;27;20076;-76
2023/12/20 01:36:32;;;;;;;4.80;3.80;;;9.10;72.70;;;;;;5114526;27;20035;-76
2023/12/20 01:38:58;;;;;;;4.82;3.80;;;9.10;72.70;;;;;;5114916;28;20035;-79
2023/12/20 01:41:23;;;;;;;5.75;4.30;;;9.10;72.70;;;;;;5104511;28;20032;-77
2023/12/20 01:43:49;;;;;;;6.05;4.55;;;9.10;72.70;;;;;;5114850;27;20071;-76
2023/12/20 01:46:15;;;;;;;6.20;4.38;;;9.00;72.60;;;;;;5114559;27;20079;-76
2023/12/20 01:48:42;;;;;;;6.60;4.13;;;9.10;72.60;;;;;;5129324;27;20023;-77
2023/12/20 01:51:08;;;;;;;4.90;3.90;;;9.10;72.60;;;;;;5100796;28;20019;-76
2023/12/20 01:53:34;;;;;;;5.50;4.32;;;9.10;72.70;;;;;;5108003;28;20031;-76
2023/12/20 01:56:01;;;;;;;5.60;4.07;;;9.00;72.60;;;;;;5104207;28;20055;-76
2023/12/20 01:58:27;;;;;;;6.53;4.43;;;9.00;72.50;;;;;;5108666;28;20047;-77
2023/12/20 02:00:54;;;;;;;5.65;4.22;;;9.00;72.40;;;;;;5102693;28;20027;-76
2023/12/20 02:03:21;;;;;;;5.53;4.38;;;9.00;72.40;;;;;;5119895;28;20038;-76
2023/12/20 02:05:47;;;;;;;5.93;3.97;;;9.00;72.50;;;;;;5114556;28;20031;-76
2023/12/20 02:08:13;;;;;;;5.95;4.38;;;9.00;72.50;;;;;;5099217;28;20044;-76
2023/12/20 02:10:40;;;;;;;6.95;4.18;;;9.00;72.40;;;;;;5133665;27;20123;-77
2023/12/20 02:13:06;;;;;;;5.00;4.05;;;9.00;72.40;;;;;;5122626;27;20027;-78
2023/12/20 02:15:32;;;;;;;5.63;4.35;;;9.00;72.40;;;;;;5104988;27;20472;-77
2023/12/20 02:17:58;;;;;;;6.07;4.35;;;9.00;72.40;;;;;;5104156;27;20430;-77
2023/12/20 02:20:24;;;;;;;5.95;4.03;;;9.00;72.90;;;;;;5138724;27;20042;-77
2023/12/20 02:22:50;;;;;;;5.55;4.43;;;9.00;72.40;;;;;;5105578;28;20409;-77
2023/12/20 02:25:16;;;;;;;6.00;4.13;;;9.00;72.40;;;;;;5134648;27;20031;-76
2023/12/20 02:27:42;;;;;;;5.75;4.43;;;9.00;72.30;;;;;;5113993;27;20846;-76
2023/12/20 02:30:08;;;;;;;5.63;4.10;;;9.00;72.30;;;;;;5103805;27;20053;-76
2023/12/20 02:32:34;;;;;;;5.55;4.40;;;8.90;72.20;;;;;;5126555;27;20071;-78
2023/12/20 02:35:00;;;;;;;5.65;4.63;;;8.90;72.20;;;;;;5124960;27;20114;-77
2023/12/20 02:37:26;;;;;;;5.28;4.00;;;8.90;72.20;;;;;;5126277;27;20047;-76
2023/12/20 02:39:51;;;;;;;5.70;4.18;;;8.90;72.10;;;;;;5101554;27;20045;-76
2023/12/20 02:42:17;;;;;;;5.32;4.20;;;8.90;72.10;;;;;;5134929;27;20106;-77
2023/12/20 02:44:43;;;;;;;7.63;4.53;;;8.90;72.10;;;;;;5111518;28;20035;-76
2023/12/20 02:47:09;;;;;;;7.25;4.45;;;8.80;72.10;;;;;;5127256;27;20023;-75
2023/12/20 02:49:35;;;;;;;5.50;4.22;;;8.80;72.00;;;;;;5105730;28;20031;-76
2023/12/20 02:52:00;;;;;;;6.70;4.43;;;8.80;72.00;;;;;;5131368;27;20024;-76
2023/12/20 02:54:26;;;;;;;5.60;4.07;;;8.80;72.00;;;;;;5114182;27;20489;-76
2023/12/20 02:56:52;;;;;;;5.45;4.40;;;8.80;72.00;;;;;;5132618;27;20047;-76
2023/12/20 02:59:18;;;;;;;6.13;4.30;;;8.80;72.00;;;;;;5104624;27;20027;-76
2023/12/20 03:01:45;;;;;;;6.13;4.32;;;8.80;72.00;;;;;;5128616;27;20103;-76
2023/12/20 03:04:11;;;;;;;6.90;4.55;;;8.80;72.00;;;;;;5117478;27;20032;-76
2023/12/20 03:06:36;;;;;;;5.65;4.22;;;8.80;71.90;;;;;;5116021;28;20027;-77
2023/12/20 03:09:02;;;;;;;6.03;3.97;;;8.80;71.90;;;;;;5103838;28;20484;-77
2023/12/20 03:11:28;;;;;;;5.50;4.28;;;8.70;71.80;;;;;;5105126;27;20035;-76
2023/12/20 03:13:55;;;;;;;5.53;4.32;;;8.70;71.80;;;;;;5135202;27;20023;-76
2023/12/20 03:16:20;;;;;;;6.55;5.28;;;8.70;71.80;;;;;;5104244;27;20035;-77
2023/12/20 03:18:46;;;;;;;6.18;4.63;;;8.70;71.80;;;;;;5118834;27;20468;-75
2023/12/20 03:21:12;;;;;;;6.32;4.45;;;8.60;71.70;;;;;;5122561;27;20035;-77
2023/12/20 03:23:38;;;;;;;7.32;4.93;;;8.70;71.80;;;;;;5120344;27;20039;-77
2023/12/20 03:26:07;;;;;;;6.93;5.10;;;8.60;71.70;;;;;;5100807;27;20398;-77
2023/12/20 03:28:33;;;;;;;5.93;4.60;;;8.60;71.70;;;;;;5114242;27;20028;-78
2023/12/20 03:30:59;;;;;;;5.70;4.50;;;8.60;71.70;;;;;;5125841;27;20457;-77
2023/12/20 03:33:25;;;;;;;5.70;4.70;;;8.50;71.70;;;;;;5115560;28;20124;-76
2023/12/20 03:35:50;;;;;;;6.20;4.90;;;8.50;71.70;;;;;;5116655;28;20482;-77
2023/12/20 03:38:16;;;;;;;6.28;4.80;;;8.50;71.70;;;;;;5111256;27;20043;-77
2023/12/20 03:40:42;;;;;;;5.90;4.68;;;8.50;71.70;;;;;;5135341;27;20381;-77
2023/12/20 03:43:08;;;;;;;6.65;4.70;;;8.50;71.70;;;;;;5122554;27;20027;-76
2023/12/20 03:45:34;;;;;;;7.45;4.95;;;8.50;71.70;;;;;;5130210;27;20031;-78
2023/12/20 03:48:00;;;;;;;6.30;5.05;;;8.50;71.70;;;;;;5118889;27;20027;-76
2023/12/20 03:50:26;;;;;;;6.80;4.95;;;8.50;72.20;;;;;;5108112;27;20477;-77
2023/12/20 03:52:52;;;;;;;6.13;4.97;;;8.50;71.60;;;;;;5137053;27;20023;-77
2023/12/20 03:55:18;;;;;;;7.22;5.07;;;8.50;71.60;;;;;;5101607;27;20027;-78
2023/12/20 03:57:44;;;;;;;6.05;4.80;;;8.50;71.50;;;;;;5137018;27;20047;-77
2023/12/20 04:00:11;;;;;;;7.30;4.90;;;8.40;71.50;;;;;;5114789;28;20462;-77
2023/12/20 04:02:37;;;;;;;5.70;4.70;;;8.40;71.50;;;;;;5109167;27;20035;-77
2023/12/20 04:05:04;;;;;;;7.00;5.35;;;8.40;71.40;;;;;;5118289;27;20377;-77
2023/12/20 04:07:30;;;;;;;7.25;5.35;;;8.40;71.40;;;;;;5117723;27;20027;-76
2023/12/20 04:09:56;;;;;;;6.35;5.00;;;8.40;71.40;;;;;;5118190;27;20045;-78
2023/12/20 04:12:23;;;;;;;6.75;5.45;;;8.40;71.40;;;;;;5108725;27;20457;-76
2023/12/20 04:14:49;;;;;;;7.78;5.43;;;8.40;71.40;;;;;;5107164;28;20043;-76
2023/12/20 04:17:16;;;;;;;7.53;5.68;;;8.40;71.40;;;;;;5122611;27;20031;-76
2023/12/20 04:19:42;;;;;;;6.72;5.45;;;8.40;71.40;;;;;;5127631;27;20504;-76
2023/12/20 04:22:08;;;;;;;6.35;4.70;;;8.40;71.30;;;;;;5135936;27;20027;-77
2023/12/20 04:24:34;;;;;;;6.50;5.07;;;8.40;71.30;;;;;;5105677;28;20173;-77
2023/12/20 04:27:00;;;;;;;6.43;4.55;;;8.30;71.20;;;;;;5102206;27;20027;-77
2023/12/20 04:29:26;;;;;;;6.00;4.60;;;8.30;71.30;;;;;;5102887;27;20076;-77
2023/12/20 04:31:51;;;;;;;6.18;4.78;;;8.40;71.30;;;;;;5133811;27;20484;-77
2023/12/20 04:34:18;;;;;;;6.50;4.93;;;8.40;71.20;;;;;;5124224;27;20090;-77
2023/12/20 04:36:44;;;;;;;6.22;4.80;;;8.40;71.20;;;;;;5114904;27;20137;-77
2023/12/20 04:39:11;;;;;;;6.65;4.80;;;8.40;71.10;;;;;;5129662;27;20102;-77
2023/12/20 04:41:36;;;;;;;6.22;4.53;;;8.40;71.10;;;;;;5111293;27;20027;-78
2023/12/20 04:44:02;;;;;;;6.28;4.95;;;8.40;71.10;;;;;;5125007;27;20423;-76
2023/12/20 04:46:28;;;;;;;6.05;4.88;;;8.40;71.00;;;;;;5106039;27;20041;-78
2023/12/20 04:48:54;;;;;;;6.05;4.63;;;8.40;71.00;;;;;;5112250;28;20073;-77
2023/12/20 04:51:20;;;;;;;6.03;4.50;;;8.40;71.00;;;;;;5107928;27;20035;-78
2023/12/20 04:53:45;;;;;;;7.20;5.15;;;8.40;71.00;;;;;;5106659;28;20047;-77
2023/12/20 04:56:11;;;;;;;6.03;4.75;;;8.30;70.90;;;;;;5105035;27;20043;-77
2023/12/20 04:58:37;;;;;;;6.57;4.57;;;8.30;70.90;;;;;;5124257;27;20074;-77
2023/12/20 05:01:05;;;;;;;6.88;5.05;;;8.30;70.90;;;;;;5111803;28;20035;-77
2023/12/20 05:03:31;;;;;;;6.72;4.95;;;8.30;70.90;;;;;;5113752;28;20030;-77
2023/12/20 05:05:58;;;;;;;6.07;4.85;;;8.30;70.90;;;;;;5113436;28;20031;-77
2023/12/20 05:08:24;;;;;;;8.15;5.43;;;8.30;70.90;;;;;;5123166;27;20107;-78
2023/12/20 05:10:51;;;;;;;7.05;5.53;;;8.30;70.80;;;;;;5135217;27;20023;-77
2023/12/20 05:13:17;;;;;;;9.20;5.60;;;8.30;70.80;;;;;;5101685;28;20028;-77
2023/12/20 05:15:43;;;;;;;7.78;5.32;;;8.30;70.70;;;;;;5100165;28;20493;-77
2023/12/20 05:18:08;;;;;;;7.20;5.07;;;8.30;70.70;;;;;;5097761;28;20035;-72
2023/12/20 05:20:35;;;;;;;6.75;4.78;;;8.30;70.70;;;;;;5113471;28;20035;-76
2023/12/20 05:23:01;;;;;;;7.90;5.00;;;8.30;70.70;;;;;;5113633;28;20496;-75
2023/12/20 05:25:27;;;;;;;7.05;5.03;;;8.40;70.80;;;;;;5115219;27;20028;-77
2023/12/20 05:27:53;;;;;;;6.30;5.03;;;8.30;70.70;;;;;;5123472;27;20033;-75
2023/12/20 05:30:18;;;;;;;7.60;5.32;;;8.30;70.70;;;;;;5120365;27;20094;-76
2023/12/20 05:32:44;;;;;;;7.10;5.20;;;8.30;70.60;;;;;;5118982;27;20068;-74
2023/12/20 05:35:29;;;;;;;6.28;5.10;;;8.40;70.70;;;;;;5116482;27;20037;-75
2023/12/20 05:37:55;;;;;;;6.50;5.00;;;8.40;70.50;;;;;;5118684;27;20063;-76
2023/12/20 05:40:21;;;;;;;6.50;5.00;;;8.40;70.60;;;;;;5125630;27;20059;-76
2023/12/20 05:42:48;;;;;;;6.60;5.00;;;8.40;70.50;;;;;;5135154;27;20023;-77
2023/12/20 05:45:15;;;;;;;8.05;4.97;;;8.40;70.50;;;;;;5134715;27;20380;-77
2023/12/20 05:47:41;;;;;;;8.27;5.32;;;8.40;70.50;;;;;;5134231;27;20449;-75
2023/12/20 05:50:07;;;;;;;6.65;5.35;;;8.40;70.40;;;;;;5116224;27;20034;-78
2023/12/20 05:52:32;;;;;;;6.65;5.40;;;8.40;70.40;;;;;;5128325;27;20030;-74
2023/12/20 05:55:01;;;;;;;7.43;5.20;;;8.40;70.40;;;;;;5114156;28;20377;-73
2023/12/20 05:57:27;;;;;;;7.35;5.40;;;8.40;70.40;;;;;;5114060;28;20455;-75
2023/12/20 05:59:54;;;;;;;7.60;5.38;;;8.30;70.30;;;;;;5126653;27;20092;-76
2023/12/20 06:02:19;;;;;;;8.18;5.88;;;8.30;70.30;;;;;;5134512;27;20027;-76
2023/12/20 06:04:45;;;;;;;7.45;5.20;;;8.30;70.40;;;;;;5112523;28;20038;-75
2023/12/20 06:07:12;;;;;;;6.93;5.10;;;8.30;70.30;;;;;;5114449;28;20026;-75
2023/12/20 06:09:38;;;;;;;6.85;5.30;;;8.30;70.30;;;;;;5112666;28;20367;-75
2023/12/20 06:12:04;;;;;;;6.05;4.60;;;8.30;70.30;;;;;;5114315;28;20111;-75
2023/12/20 06:14:30;;;;;;;7.90;5.07;;;8.30;70.20;;;;;;5114439;28;20473;-73
2023/12/20 06:16:57;;;;;;;6.90;5.45;;;8.40;70.20;;;;;;5114219;28;20114;-73
2023/12/20 06:19:23;;;;;;;7.85;5.28;;;8.30;70.20;;;;;;5115360;28;20042;-75
2023/12/20 06:21:49;;;;;;;6.55;4.88;;;8.30;70.20;;;;;;5112656;28;20402;-74
2023/12/20 06:24:14;;;;;;;5.90;4.78;;;8.30;70.10;;;;;;5114001;28;20028;-76
2023/12/20 06:26:40;;;;;;;9.38;6.70;;;8.30;70.20;;;;;;5113803;28;20027;-75
2023/12/20 06:29:06;;;;;;;6.00;4.93;;;8.30;70.10;;;;;;5115742;27;20569;-74
2023/12/20 06:31:32;;;;;;;6.78;5.10;;;8.30;70.20;;;;;;5134326;28;20058;-75
2023/12/20 06:33:59;;;;;;;6.63;4.68;;;8.30;70.20;;;;;;5134134;28;20461;-74
2023/12/20 06:36:26;;;;;;;7.25;4.90;;;8.30;70.20;;;;;;5134301;28;20035;-75
2023/12/20 06:38:52;;;;;;;7.70;5.20;;;8.30;70.20;;;;;;5132715;27;20457;-75
2023/12/20 06:41:19;;;;;;;6.45;5.10;;;8.30;70.20;;;;;;5115674;28;20046;-74
2023/12/20 06:43:45;;;;;;;7.22;5.20;;;8.30;70.20;;;;;;5115721;28;20063;-75
2023/12/20 06:46:13;;;;;;;6.25;4.95;;;8.30;70.20;;;;;;5134553;27;20055;-75
2023/12/20 06:48:39;;;;;;;7.32;5.13;;;8.30;70.20;;;;;;5132676;27;20376;-75
2023/12/20 06:51:05;;;;;;;6.93;4.80;;;8.30;70.20;;;;;;5133987;28;20015;-74
2023/12/20 06:53:31;;;;;;;6.65;4.55;;;8.30;70.20;;;;;;5134330;28;20414;-74
2023/12/20 06:55:56;;;;;;;7.20;4.80;;;8.30;70.10;;;;;;5115792;28;20051;-73
2023/12/20 06:58:23;;;;;;;6.47;5.13;;;8.30;70.00;;;;;;5113661;27;20128;-75
2023/12/20 07:00:50;;;;;;;6.88;5.10;;;8.40;70.00;;;;;;5136841;27;20464;-74
2023/12/20 07:03:16;;;;;;;6.55;5.00;;;8.40;69.90;;;;;;5121770;27;20518;-75
2023/12/20 07:05:42;;;;;;;6.32;4.78;;;8.40;69.80;;;;;;5117604;28;20035;-73
2023/12/20 07:08:07;;;;;;;6.43;4.82;;;8.40;69.80;;;;;;5117408;28;20385;-75
2023/12/20 07:10:33;;;;;;;6.25;4.82;;;8.40;69.70;;;;;;5115838;28;20038;-74
2023/12/20 07:12:59;;;;;;;6.60;5.10;;;8.50;69.80;;;;;;5129477;27;20078;-74
2023/12/20 07:15:26;;;;;;;7.32;5.00;;;8.50;69.80;;;;;;5132073;27;20023;-75
2023/12/20 07:17:53;;;;;;;7.10;5.28;;;8.50;69.70;;;;;;5134082;27;20049;-77
2023/12/20 07:20:19;;;;;;;8.10;5.13;;;8.50;69.80;;;;;;5137758;27;20027;-73
2023/12/20 07:22:44;;;;;;;8.50;5.45;;;8.50;69.70;;;;;;5131842;27;20031;-80
2023/12/20 07:25:10;;;;;;;6.38;5.18;;;8.50;69.60;;;;;;5118991;27;20031;-80
2023/12/20 07:27:36;;;;;;;7.07;5.00;;;8.60;69.70;;;;;;5101973;27;20060;-79
2023/12/20 07:30:02;;;;;;;7.28;5.50;;;8.60;69.60;;;;;;5119480;27;20110;-81
2023/12/20 07:32:28;;;;;;;6.82;5.05;;;8.60;69.60;;;;;;5115515;28;20384;-79
2023/12/20 07:34:54;;;;;;;6.57;4.97;;;8.60;69.50;;;;;;5115441;28;20023;-82
2023/12/20 07:37:20;;;;;;;6.20;4.68;;;8.70;69.50;;;;;;5116712;28;20457;-79
2023/12/20 07:39:46;;;;;;;7.03;5.47;;;8.70;69.40;;;;;;5114439;28;20118;-79
2023/12/20 07:42:12;;;;;;;7.70;5.20;;;8.70;69.40;;;;;;5120613;27;20102;-79
2023/12/20 07:44:38;;;;;;;6.85;5.07;;;8.70;69.40;;;;;;5137088;27;20090;-78
2023/12/20 07:47:04;;;;;;;7.78;5.45;;;8.70;69.40;;;;;;5118488;27;20072;-76
2023/12/20 07:49:31;;;;;;;7.25;5.47;;;8.70;69.40;;;;;;5137066;27;20031;-76
2023/12/20 07:51:57;;;;;;;8.02;5.63;;;8.70;69.40;;;;;;5126781;27;20032;-79
2023/12/20 07:54:23;;;;;;;6.85;5.20;;;8.70;69.30;;;;;;5104560;28;20096;-76
2023/12/20 07:56:49;;;;;;;6.80;5.15;;;8.70;69.30;;;;;;5107152;27;20071;-77
2023/12/20 07:59:15;;;;;;;7.25;5.38;;;8.80;69.40;;;;;;5137635;27;20031;-77
2023/12/20 08:01:42;;;;;;;7.70;5.47;;;8.80;69.40;;;;;;5136525;27;20023;-83
2023/12/20 08:04:08;;;;;;;5.03;3.65;;;8.80;69.40;;;;;;5111853;27;20483;-87
2023/12/20 08:06:33;;;;;;;6.60;3.92;;;8.90;75.60;;;;;;5137434;27;20031;-88
2023/12/20 08:08:59;;;;;;;9.55;4.18;;;9.30;78.20;;;;;;5121088;27;20430;-87
2023/12/20 08:11:25;;;;;;;5.80;4.00;;;9.70;79.20;;;;;;5139112;27;20472;-91
2023/12/20 08:13:51;;;;;;;5.05;3.97;;;10.10;79.70;;;;;;5121825;27;20487;-84
2023/12/20 08:16:17;;;;;;;7.22;4.18;;;10.50;79.40;;;;;;5105892;28;20037;-77
2023/12/20 08:18:43;;;;;;;5.63;4.30;;;10.90;79.10;;;;;;5109554;27;20031;-77
2023/12/20 08:21:09;;;;;;;6.45;4.25;;;11.20;77.30;;;;;;5131398;27;20028;-79
2023/12/20 08:23:35;;;;;;;5.65;4.10;;;11.30;75.80;;;;;;5113586;27;20080;-77
2023/12/20 08:26:06;;;;;;;5.95;4.50;;;11.50;75.10;;;;;;5116108;27;20030;-79
2023/12/20 08:28:31;;;;;;;6.40;4.68;;;11.40;74.70;;;;;;5130706;27;20114;-77
2023/12/20 08:30:57;;;;;;;5.40;4.43;;;11.50;74.30;;;;;;5097554;28;20504;-79
2023/12/20 08:33:23;;;;;;;7.30;4.90;;;11.40;74.10;;;;;;5116540;27;20027;-76
2023/12/20 08:35:49;;;;;;;6.07;4.40;;;11.40;74.20;;;;;;5097180;28;20030;-79
2023/12/20 08:38:15;;;;;;;8.30;4.28;;;11.40;74.40;;;;;;5097098;28;20036;-77
2023/12/20 08:40:41;;;;;;;7.13;4.60;;;11.30;74.60;;;;;;5116390;27;20034;-77
2023/12/20 08:43:07;;;;;;;9.75;4.63;;;11.30;74.70;;;;;;5105373;27;20027;-77
2023/12/20 08:45:32;;;;;;;6.57;4.68;;;11.30;74.70;;;;;;5120447;27;20103;-78
2023/12/20 08:47:59;;;;;;;7.00;4.93;;;11.30;74.50;;;;;;5115356;28;20421;-78
2023/12/20 08:50:25;;;;;;;6.30;4.65;;;11.30;74.40;;;;;;5133108;27;20015;-76
2023/12/20 08:52:51;;;;;;;7.72;4.82;;;11.30;74.50;;;;;;5117482;27;20027;-80
2023/12/20 08:55:18;;;;;;;8.98;5.30;;;11.30;74.50;;;;;;5122351;27;20027;-78
2023/12/20 08:57:43;;;;;;;8.60;5.43;;;11.30;74.60;;;;;;5115644;28;20043;-78
2023/12/20 09:00:10;;;;;;;8.20;4.93;;;11.30;74.60;;;;;;5114124;28;20031;-77
2023/12/20 09:02:37;;;;;;;7.05;4.97;;;11.30;74.80;;;;;;5115354;28;20027;-78
2023/12/20 09:05:03;;;;;;;6.55;4.78;;;11.30;74.70;;;;;;5115117;28;20034;-81
2023/12/20 09:07:31;;;;;;;8.35;5.28;;;11.30;74.70;;;;;;5115204;28;20042;-78
2023/12/20 09:09:58;;;;;;;7.63;4.88;;;11.30;74.50;;;;;;5132646;27;20523;-79
2023/12/20 09:12:24;;;;;;;6.72;4.82;;;11.30;74.60;;;;;;5117189;27;20064;-78
2023/12/20 09:14:51;;;;;;;6.60;4.72;;;11.30;74.60;;;;;;5135385;27;20448;-79
2023/12/20 09:17:18;;;;;;;7.35;5.07;;;11.30;74.50;;;;;;5116948;27;20527;-77
2023/12/20 09:19:45;;;;;;;6.30;4.90;;;11.30;74.50;;;;;;5135631;27;20024;-79
2023/12/20 09:22:11;;;;;;;7.32;5.35;;;11.30;74.50;;;;;;5113373;27;20034;-78
2023/12/20 09:24:38;;;;;;;6.22;4.97;;;11.30;74.30;;;;;;5114944;27;20023;-78
2023/12/20 09:27:05;;;;;;;7.85;5.53;;;11.30;74.20;;;;;;5114972;28;20037;-78
2023/12/20 09:29:31;;;;;;;6.57;4.60;;;11.30;74.10;;;;;;5114766;28;20453;-78
2023/12/20 09:31:57;;;;;;;6.25;4.63;;;11.30;74.20;;;;;;5114728;28;20130;-79
2023/12/20 09:34:24;;;;;;;7.05;4.70;;;11.30;74.50;;;;;;5114654;28;20054;-78
2023/12/20 09:36:49;;;;;;;6.30;4.70;;;11.30;74.40;;;;;;5116141;27;20494;-77
2023/12/20 09:39:23;;;;;;;6.78;4.85;;;11.30;74.30;;;;;;5116567;27;20102;-78
2023/12/20 09:42:05;;;;;;;7.15;5.28;;;11.40;74.20;;;;;;5117062;28;20019;-77
2023/12/20 09:44:36;;;;;;;6.50;5.32;;;11.40;74.00;;;;;;5135189;27;20032;-78
2023/12/20 09:47:07;;;;;;;7.95;5.35;;;11.40;73.80;;;;;;5134817;27;20094;-78
2023/12/20 09:49:33;;;;;;;6.40;4.45;;;11.40;73.80;;;;;;5134974;27;20038;-78
2023/12/20 09:52:01;;;;;;;7.25;5.45;;;11.30;73.80;;;;;;5115651;27;20080;-79
2023/12/20 09:54:28;;;;;;;6.68;4.50;;;11.40;73.80;;;;;;5133931;27;20031;-80
2023/12/20 09:56:54;;;;;;;6.32;4.90;;;11.40;74.00;;;;;;5135065;27;20050;-78
2023/12/20 09:59:20;;;;;;;7.05;4.80;;;11.40;74.10;;;;;;5134981;27;20027;-78
2023/12/20 10:01:45;;;;;;;6.47;4.60;;;11.40;74.00;;;;;;5116115;27;20488;-78
2023/12/20 10:04:13;;;;;;;6.10;4.38;;;11.50;73.90;;;;;;5135031;27;20027;-79
2023/12/20 10:06:42;;;;;;;6.85;4.88;;;11.50;73.80;;;;;;5134737;27;20030;-80
2023/12/20 10:09:10;;;;;;;6.32;4.50;;;11.50;73.70;;;;;;5134791;28;20109;-80
2023/12/20 10:11:40;;;;;;;5.90;4.50;;;11.60;73.70;;;;;;5132837;28;20028;-77
2023/12/20 10:14:07;;;;;;;7.93;4.85;;;11.60;73.50;;;;;;5134790;28;20110;-78
2023/12/20 10:16:34;;;;;;;6.97;5.13;;;11.60;73.50;;;;;;5135223;27;20042;-77
2023/12/20 10:19:04;;;;;;;6.65;4.95;;;11.60;73.20;;;;;;5129751;28;20026;-78
2023/12/20 10:21:30;;;;;;;5.70;4.45;;;11.60;73.20;;;;;;5112810;28;20031;-78
2023/12/20 10:23:58;;;;;;;6.50;4.20;;;11.60;73.20;;;;;;5114205;28;20016;-78
2023/12/20 10:26:25;;;;;;;5.93;4.53;;;11.60;73.20;;;;;;5113866;28;20056;-78
2023/12/20 10:28:56;;;;;;;5.80;4.55;;;11.70;73.20;;;;;;5113724;28;20111;-78
2023/12/20 10:31:33;;;;;;;5.72;4.57;;;11.70;73.10;;;;;;5114647;28;20473;-78
2023/12/20 10:34:00;;;;;;;5.90;4.30;;;11.70;73.10;;;;;;5115790;28;20036;-79
2023/12/20 10:36:27;;;;;;;6.07;4.95;;;11.70;73.60;;;;;;5116693;28;20019;-78
2023/12/20 10:38:55;;;;;;;6.97;4.40;;;11.70;72.80;;;;;;5117939;28;20035;-77
2023/12/20 10:41:31;;;;;;;6.10;4.80;;;11.70;72.80;;;;;;5117669;28;20461;-78
2023/12/20 10:44:02;;;;;;;5.65;4.57;;;11.80;72.70;;;;;;5118077;28;20072;-79
2023/12/20 10:46:29;;;;;;;5.85;4.25;;;11.80;72.70;;;;;;5118125;28;20027;-78
2023/12/20 10:48:56;;;;;;;5.05;3.90;;;11.80;72.80;;;;;;5117964;28;20041;-77
2023/12/20 10:51:24;;;;;;;6.05;4.82;;;11.80;72.90;;;;;;5116492;28;20086;-79
2023/12/20 10:53:53;;;;;;;7.05;4.88;;;11.80;72.70;;;;;;5118608;27;20457;-79
2023/12/20 10:56:20;;;;;;;5.88;4.10;;;11.80;72.60;;;;;;5117452;28;20048;-77
2023/12/20 10:58:47;;;;;;;5.78;4.40;;;11.90;72.70;;;;;;5116247;28;20035;-78
2023/12/20 11:01:14;;;;;;;6.47;4.78;;;11.90;73.30;;;;;;5117593;28;20369;-78
2023/12/20 11:03:47;;;;;;;6.07;4.60;;;11.90;72.50;;;;;;5117357;28;20102;-78
2023/12/20 11:06:23;;;;;;;5.97;4.72;;;11.90;72.50;;;;;;5117286;28;20054;-79
2023/12/20 11:09:09;;;;;;;5.88;4.70;;;11.90;72.40;;;;;;5117857;28;20051;-78
2023/12/20 11:11:55;;;;;;;7.03;5.07;;;11.90;72.30;;;;;;5115064;27;20019;-79
2023/12/20 11:14:37;;;;;;;6.20;4.72;;;12.00;72.30;;;;;;5137626;27;20023;-80
2023/12/20 11:17:13;;;;;;;6.25;4.60;;;11.90;72.10;;;;;;5135783;27;20046;-76
2023/12/20 11:20:01;;;;;;;6.30;5.07;;;11.90;72.20;;;;;;5130716;27;20031;-76
2023/12/20 11:22:30;;;;;;;5.15;4.20;;;11.90;72.20;;;;;;5092179;28;20043;-77
2023/12/20 11:25:10;;;;;;;7.78;4.55;;;12.00;73.00;;;;;;5096732;28;20031;-78
2023/12/20 11:27:40;;;;;;;5.70;4.25;;;12.00;72.40;;;;;;5132000;27;20376;-78
2023/12/20 11:30:06;;;;;;;6.20;4.60;;;12.00;72.30;;;;;;5130800;27;20024;-81
2023/12/20 11:32:37;;;;;;;7.00;5.65;;;12.00;72.10;;;;;;5120869;27;20085;-80
2023/12/20 11:35:08;;;;;;;7.60;5.35;;;12.00;71.70;;;;;;5119020;27;20016;-81
2023/12/20 11:37:42;;;;;;;7.50;5.60;;;12.00;71.40;;;;;;5098670;28;20032;-83
2023/12/20 11:40:12;;;;;;;7.57;5.85;;;11.90;71.10;;;;;;5098359;28;20042;-80
2023/12/20 11:42:40;;;;;;;7.45;5.85;;;11.90;71.10;;;;;;5117983;27;20032;-80
2023/12/20 11:45:09;;;;;;;9.05;6.50;;;11.80;71.00;;;;;;5114847;28;20089;-80
2023/12/20 11:47:35;;;;;;;8.32;5.80;;;11.70;71.00;;;;;;5116548;27;20039;-78
2023/12/20 11:50:03;;;;;;;7.80;6.00;;;11.60;71.10;;;;;;5118078;27;20358;-78
2023/12/20 11:52:29;;;;;;;8.35;6.25;;;11.60;71.10;;;;;;5104634;27;20046;-79
2023/12/20 11:54:56;;;;;;;6.95;5.45;;;11.50;71.10;;;;;;5133321;27;20023;-77
2023/12/20 11:57:22;;;;;;;7.80;5.70;;;11.50;71.10;;;;;;5127815;27;20055;-78
2023/12/20 11:59:48;;;;;;;7.72;6.00;;;11.50;71.10;;;;;;5136375;27;20045;-79
2023/12/20 12:02:14;;;;;;;7.28;5.70;;;11.40;71.10;;;;;;5121726;27;20051;-78
2023/12/20 12:04:43;;;;;;;6.57;5.32;;;11.40;71.20;;;;;;5105015;27;20038;-79
2023/12/20 12:07:09;;;;;;;7.65;5.57;;;11.40;71.30;;;;;;5121587;27;20053;-78
2023/12/20 12:09:35;;;;;;;6.70;5.60;;;11.40;71.30;;;;;;5121677;27;20027;-80
2023/12/20 12:12:01;;;;;;;6.80;5.25;;;11.30;71.30;;;;;;5136699;27;20106;-83
2023/12/20 12:14:27;;;;;;;7.20;5.25;;;11.30;71.20;;;;;;5130200;27;20042;-82
2023/12/20 12:16:53;;;;;;;7.60;5.40;;;11.20;71.20;;;;;;5136559;27;20043;-79
2023/12/20 12:19:26;;;;;;;7.43;5.40;;;11.20;71.20;;;;;;5136972;27;20019;-81
2023/12/20 12:22:10;;;;;;;6.97;5.70;;;11.20;71.20;;;;;;5118640;27;20453;-80
2023/12/20 12:24:37;;;;;;;7.95;5.88;;;11.20;71.10;;;;;;5117675;27;20376;-84
2023/12/20 12:27:03;;;;;;;9.65;6.03;;;11.10;71.10;;;;;;5117856;27;20042;-79
2023/12/20 12:29:29;;;;;;;6.95;5.55;;;11.10;71.20;;;;;;5136675;27;20019;-79
2023/12/20 12:31:55;;;;;;;7.55;5.57;;;11.10;71.20;;;;;;5136651;27;20019;-83
2023/12/20 12:34:21;;;;;;;6.35;5.30;;;11.00;71.20;;;;;;5136650;27;20046;-80
2023/12/20 12:36:48;;;;;;;7.35;5.28;;;11.00;71.20;;;;;;5106440;28;20040;-81
2023/12/20 12:39:17;;;;;;;6.85;5.57;;;11.00;71.20;;;;;;5104886;27;20031;-86
2023/12/20 12:41:46;;;;;;;7.00;5.40;;;11.00;71.20;;;;;;5122629;27;20427;-84
2023/12/20 12:44:11;;;;;;;7.03;5.43;;;10.90;71.20;;;;;;5101599;28;20058;-81
2023/12/20 12:46:38;;;;;;;6.47;5.35;;;11.00;71.30;;;;;;5115915;28;20063;-81
2023/12/20 12:49:04;;;;;;;7.13;5.57;;;10.90;71.20;;;;;;5115755;28;20027;-82
2023/12/20 12:51:30;;;;;;;7.97;6.10;;;10.90;71.30;;;;;;5115645;28;20081;-80